sensor_id;sensor_type;location;lat;lon;timestamp;pressure;altitude;pressure_sealevel;temperature;humidity
13604;BME280;24578;48.264;11.436;2023-01-28T00:01:59;96499.50;;;-1.63;100.00
13604;BME280;24578;48.264;11.436;2023-01-28T00:05:00;96487.63;;;-1.61;100.00
13604;BME280;24578;48.264;11.436;2023-01-28T00:08:00;96500.16;;;-1.51;100.00
13604;BME280;24578;48.264;11.436;2023-01-28T00:11:03;96492.72;;;-1.61;100.00
13604;BME280;24578;48.264;11.436;2023-01-28T00:14:04;96495.34;;;-1.65;100.00
13604;BME280;24578;48.264;11.436;2023-01-28T00:17:05;96486.09;;;-1.68;100.00
13604;BME280;24578;48.264;11.436;2023-01-28T00:20:05;96493.66;;;-1.66;100.00
13604;BME280;24578;48.264;11.436;2023-01-28T00:23:06;96489.44;;;-1.66;100.00
13604;BME280;24578;48.264;11.436;2023-01-28T00:26:11;96499.47;;;-1.60;100.00
13604;BME280;24578;48.264;11.436;2023-01-28T00:29:11;96491.84;;;-1.60;100.00
13604;BME280;24578;48.264;11.436;2023-01-28T00:32:12;96495.97;;;-1.54;100.00
13604;BME280;24578;48.264;11.436;2023-01-28T00:35:12;96488.38;;;-1.56;100.00
13604;BME280;24578;48.264;11.436;2023-01-28T00:38:13;96495.13;;;-1.55;100.00
13604;BME280;24578;48.264;11.436;2023-01-28T00:41:16;96485.03;;;-1.58;100.00
13604;BME280;24578;48.264;11.436;2023-01-28T00:44:18;96490.97;;;-1.59;100.00
13604;BME280;24578;48.264;11.436;2023-01-28T00:47:19;96487.56;;;-1.58;100.00
13604;BME280;24578;48.264;11.436;2023-01-28T00:50:21;96490.00;;;-1.53;100.00
13604;BME280;24578;48.264;11.436;2023-01-28T00:53:21;96472.25;;;-1.53;100.00
13604;BME280;24578;48.264;11.436;2023-01-28T00:56:22;96489.41;;;-1.64;100.00
13604;BME280;24578;48.264;11.436;2023-01-28T00:59:22;96494.66;;;-1.74;100.00
13604;BME280;24578;48.264;11.436;2023-01-28T01:02:23;96493.72;;;-1.68;100.00
13604;BME280;24578;48.264;11.436;2023-01-28T01:05:23;96499.50;;;-1.63;100.00
13604;BME280;24578;48.264;11.436;2023-01-28T01:08:24;96496.25;;;-1.68;100.00
13604;BME280;24578;48.264;11.436;2023-01-28T01:11:34;96503.97;;;-1.73;100.00
13604;BME280;24578;48.264;11.436;2023-01-28T01:14:34;96502.19;;;-1.69;100.00
13604;BME280;24578;48.264;11.436;2023-01-28T01:17:40;96497.16;;;-1.72;100.00
13604;BME280;24578;48.264;11.436;2023-01-28T01:20:41;96507.31;;;-1.72;100.00
13604;BME280;24578;48.264;11.436;2023-01-28T01:23:46;96506.44;;;-1.71;100.00
13604;BME280;24578;48.264;11.436;2023-01-28T01:26:46;96516.56;;;-1.70;100.00
13604;BME280;24578;48.264;11.436;2023-01-28T01:29:47;96513.22;;;-1.70;100.00
13604;BME280;24578;48.264;11.436;2023-01-28T01:32:47;96506.44;;;-1.71;100.00
13604;BME280;24578;48.264;11.436;2023-01-28T01:35:53;96515.84;;;-1.75;100.00
13604;BME280;24578;48.264;11.436;2023-01-28T01:38:56;96505.59;;;-1.70;100.00
13604;BME280;24578;48.264;11.436;2023-01-28T01:41:57;96514.97;;;-1.75;100.00
13604;BME280;24578;48.264;11.436;2023-01-28T01:45:12;96511.72;;;-1.82;100.00
13604;BME280;24578;48.264;11.436;2023-01-28T01:48:15;96510.09;;;-1.85;100.00
13604;BME280;24578;48.264;11.436;2023-01-28T01:51:25;96520.19;;;-1.81;100.00
13604;BME280;24578;48.264;11.436;2023-01-28T01:54:31;96521.81;;;-1.79;100.00
13604;BME280;24578;48.264;11.436;2023-01-28T01:57:35;96511.75;;;-1.84;100.00
13604;BME280;24578;48.264;11.436;2023-01-28T02:00:36;96518.53;;;-1.82;100.00
13604;BME280;24578;48.264;11.436;2023-01-28T02:06:47;96521.88;;;-1.80;100.00
13604;BME280;24578;48.264;11.436;2023-01-28T02:09:47;96533.78;;;-1.86;100.00
13604;BME280;24578;48.264;11.436;2023-01-28T02:12:56;96530.41;;;-1.85;100.00
13604;BME280;24578;48.264;11.436;2023-01-28T02:15:59;96532.22;;;-1.93;100.00
13604;BME280;24578;48.264;11.436;2023-01-28T02:19:00;96528.81;;;-1.90;100.00
13604;BME280;24578;48.264;11.436;2023-01-28T02:35:51;96536.47;;;-1.93;100.00
13604;BME280;24578;48.264;11.436;2023-01-28T02:38:55;96532.22;;;-1.91;100.00
13604;BME280;24578;48.264;11.436;2023-01-28T02:42:04;96535.59;;;-1.92;100.00
13604;BME280;24578;48.264;11.436;2023-01-28T02:45:29;96537.28;;;-1.91;100.00
13604;BME280;24578;48.264;11.436;2023-01-28T02:48:49;96535.47;;;-1.85;100.00
13604;BME280;24578;48.264;11.436;2023-01-28T02:55:56;96538.84;;;-1.84;100.00
13604;BME280;24578;48.264;11.436;2023-01-28T02:59:34;96547.34;;;-1.87;100.00
13604;BME280;24578;48.264;11.436;2023-01-28T03:05:54;96556.69;;;-1.89;100.00
13604;BME280;24578;48.264;11.436;2023-01-28T03:09:05;96555.81;;;-1.88;100.00
13604;BME280;24578;48.264;11.436;2023-01-28T03:12:26;96557.63;;;-1.94;100.00
13604;BME280;24578;48.264;11.436;2023-01-28T03:15:47;96555.00;;;-1.88;100.00
13604;BME280;24578;48.264;11.436;2023-01-28T03:19:09;96566.81;;;-1.87;100.00
13604;BME280;24578;48.264;11.436;2023-01-28T03:22:34;96551.66;;;-1.92;100.00
13604;BME280;24578;48.264;11.436;2023-01-28T03:26:00;96560.84;;;-1.85;100.00
13604;BME280;24578;48.264;11.436;2023-01-28T03:29:22;96558.47;;;-1.94;100.00
13604;BME280;24578;48.264;11.436;2023-01-28T03:32:43;96559.28;;;-1.92;100.00
13604;BME280;24578;48.264;11.436;2023-01-28T03:36:06;96562.63;;;-1.90;100.00
13604;BME280;24578;48.264;11.436;2023-01-28T03:39:28;96545.81;;;-1.95;100.00
13604;BME280;24578;48.264;11.436;2023-01-28T03:42:30;96561.19;;;-2.05;100.00
13604;BME280;24578;48.264;11.436;2023-01-28T03:45:31;96566.19;;;-2.00;100.00
13604;BME280;24578;48.264;11.436;2023-01-28T03:48:32;96561.00;;;-1.94;100.00
13604;BME280;24578;48.264;11.436;2023-01-28T03:51:32;96563.44;;;-1.88;100.00
13604;BME280;24578;48.264;11.436;2023-01-28T03:54:33;96569.31;;;-1.86;100.00
13604;BME280;24578;48.264;11.436;2023-01-28T03:57:33;96561.75;;;-1.89;100.00
13604;BME280;24578;48.264;11.436;2023-01-28T04:00:34;96559.19;;;-1.86;100.00
13604;BME280;24578;48.264;11.436;2023-01-28T04:03:41;96571.97;;;-1.92;100.00
13604;BME280;24578;48.264;11.436;2023-01-28T04:06:41;96568.81;;;-2.06;100.00
13604;BME280;24578;48.264;11.436;2023-01-28T04:09:42;96567.00;;;-2.00;100.00
13604;BME280;24578;48.264;11.436;2023-01-28T04:12:43;96574.75;;;-2.06;100.00
13604;BME280;24578;48.264;11.436;2023-01-28T04:15:44;96579.56;;;-1.92;100.00
13604;BME280;24578;48.264;11.436;2023-01-28T04:18:45;96580.66;;;-2.05;100.00
13604;BME280;24578;48.264;11.436;2023-01-28T04:21:46;96582.38;;;-2.06;100.00
13604;BME280;24578;48.264;11.436;2023-01-28T04:24:48;96582.16;;;-1.93;100.00
13604;BME280;24578;48.264;11.436;2023-01-28T04:27:48;96589.81;;;-1.96;100.00
13604;BME280;24578;48.264;11.436;2023-01-28T04:30:51;96591.59;;;-2.03;100.00
13604;BME280;24578;48.264;11.436;2023-01-28T04:33:51;96589.88;;;-2.01;100.00
13604;BME280;24578;48.264;11.436;2023-01-28T04:36:52;96592.38;;;-2.00;100.00
13604;BME280;24578;48.264;11.436;2023-01-28T04:39:52;96593.47;;;-2.13;100.00
13604;BME280;24578;48.264;11.436;2023-01-28T04:42:54;96594.09;;;-2.02;100.00
13604;BME280;24578;48.264;11.436;2023-01-28T04:45:55;96599.03;;;-1.92;100.00
13604;BME280;24578;48.264;11.436;2023-01-28T04:48:56;96593.28;;;-2.02;100.00
13604;BME280;24578;48.264;11.436;2023-01-28T04:51:56;96605.13;;;-2.01;100.00
13604;BME280;24578;48.264;11.436;2023-01-28T04:54:57;96594.19;;;-2.05;100.00
13604;BME280;24578;48.264;11.436;2023-01-28T04:57:58;96602.56;;;-2.01;100.00
13604;BME280;24578;48.264;11.436;2023-01-28T05:00:59;96600.84;;;-2.01;100.00
13604;BME280;24578;48.264;11.436;2023-01-28T05:03:59;96606.75;;;-1.97;100.00
13604;BME280;24578;48.264;11.436;2023-01-28T05:07:04;96611.75;;;-1.94;100.00
13604;BME280;24578;48.264;11.436;2023-01-28T05:10:05;96610.91;;;-1.94;100.00
13604;BME280;24578;48.264;11.436;2023-01-28T05:13:06;96617.63;;;-1.92;100.00
13604;BME280;24578;48.264;11.436;2023-01-28T05:16:07;96606.56;;;-1.88;100.00
13604;BME280;24578;48.264;11.436;2023-01-28T05:19:07;96609.13;;;-1.88;100.00
13604;BME280;24578;48.264;11.436;2023-01-28T05:22:08;96618.41;;;-1.87;100.00
13604;BME280;24578;48.264;11.436;2023-01-28T05:25:09;96617.53;;;-1.86;100.00
13604;BME280;24578;48.264;11.436;2023-01-28T05:28:09;96620.84;;;-1.80;100.00
13604;BME280;24578;48.264;11.436;2023-01-28T05:31:10;96617.47;;;-1.79;100.00
13604;BME280;24578;48.264;11.436;2023-01-28T05:34:10;96629.34;;;-1.81;100.00
13604;BME280;24578;48.264;11.436;2023-01-28T05:37:11;96636.13;;;-1.84;100.00
13604;BME280;24578;48.264;11.436;2023-01-28T05:40:11;96633.63;;;-1.87;100.00
13604;BME280;24578;48.264;11.436;2023-01-28T05:43:12;96635.34;;;-1.87;100.00
13604;BME280;24578;48.264;11.436;2023-01-28T05:46:12;96635.28;;;-1.84;100.00
13604;BME280;24578;48.264;11.436;2023-01-28T05:49:13;96636.13;;;-1.85;100.00
13604;BME280;24578;48.264;11.436;2023-01-28T05:52:14;96642.03;;;-1.83;100.00
13604;BME280;24578;48.264;11.436;2023-01-28T05:55:14;96641.19;;;-1.84;100.00
13604;BME280;24578;48.264;11.436;2023-01-28T05:58:17;96647.19;;;-1.88;100.00
13604;BME280;24578;48.264;11.436;2023-01-28T06:01:17;96642.09;;;-1.88;100.00
13604;BME280;24578;48.264;11.436;2023-01-28T06:04:19;96638.72;;;-1.87;100.00
13604;BME280;24578;48.264;11.436;2023-01-28T06:07:20;96646.28;;;-1.85;100.00
13604;BME280;24578;48.264;11.436;2023-01-28T06:10:20;96646.22;;;-1.80;100.00
13604;BME280;24578;48.264;11.436;2023-01-28T06:13:21;96635.28;;;-1.82;100.00
13604;BME280;24578;48.264;11.436;2023-01-28T06:16:21;96650.50;;;-1.82;100.00
13604;BME280;24578;48.264;11.436;2023-01-28T06:19:22;96647.88;;;-1.78;100.00
13604;BME280;24578;48.264;11.436;2023-01-28T06:22:22;96647.03;;;-1.78;100.00
13604;BME280;24578;48.264;11.436;2023-01-28T06:25:23;96647.22;;;-1.91;100.00
13604;BME280;24578;48.264;11.436;2023-01-28T06:28:24;96650.56;;;-1.87;100.00
13604;BME280;24578;48.264;11.436;2023-01-28T06:31:25;96657.28;;;-1.85;100.00
13604;BME280;24578;48.264;11.436;2023-01-28T06:34:26;96665.81;;;-1.87;100.00
13604;BME280;24578;48.264;11.436;2023-01-28T06:37:26;96670.03;;;-1.88;100.00
13604;BME280;24578;48.264;11.436;2023-01-28T06:40:27;96675.78;;;-1.78;100.00
13604;BME280;24578;48.264;11.436;2023-01-28T06:43:27;96664.88;;;-1.81;100.00
13604;BME280;24578;48.264;11.436;2023-01-28T06:46:29;96683.44;;;-1.81;100.00
13604;BME280;24578;48.264;11.436;2023-01-28T06:49:30;96680.06;;;-1.80;100.00
13604;BME280;24578;48.264;11.436;2023-01-28T06:52:30;96688.53;;;-1.79;100.00
13604;BME280;24578;48.264;11.436;2023-01-28T06:55:31;96681.78;;;-1.82;100.00
13604;BME280;24578;48.264;11.436;2023-01-28T06:58:32;96685.09;;;-1.77;100.00
13604;BME280;24578;48.264;11.436;2023-01-28T07:01:32;96692.53;;;-1.66;100.00
13604;BME280;24578;48.264;11.436;2023-01-28T07:04:33;96702.75;;;-1.71;100.00
13604;BME280;24578;48.264;11.436;2023-01-28T07:07:33;96699.41;;;-1.73;100.00
13604;BME280;24578;48.264;11.436;2023-01-28T07:10:34;96697.75;;;-1.75;100.00
13604;BME280;24578;48.264;11.436;2023-01-28T07:13:35;96699.53;;;-1.82;100.00
13604;BME280;24578;48.264;11.436;2023-01-28T07:16:35;96695.25;;;-1.78;100.00
13604;BME280;24578;48.264;11.436;2023-01-28T07:19:39;96705.28;;;-1.69;100.00
13604;BME280;24578;48.264;11.436;2023-01-28T07:22:41;96704.41;;;-1.68;100.00
13604;BME280;24578;48.264;11.436;2023-01-28T07:25:42;96708.53;;;-1.62;100.00
13604;BME280;24578;48.264;11.436;2023-01-28T07:28:42;96700.03;;;-1.60;100.00
13604;BME280;24578;48.264;11.436;2023-01-28T07:31:43;96701.72;;;-1.57;100.00
13604;BME280;24578;48.264;11.436;2023-01-28T07:34:43;96708.38;;;-1.51;100.00
13604;BME280;24578;48.264;11.436;2023-01-28T07:37:53;96715.06;;;-1.47;100.00
13604;BME280;24578;48.264;11.436;2023-01-28T07:40:54;96710.78;;;-1.45;100.00
13604;BME280;24578;48.264;11.436;2023-01-28T07:43:54;96722.59;;;-1.41;100.00
13604;BME280;24578;48.264;11.436;2023-01-28T07:46:55;96728.44;;;-1.38;100.00
13604;BME280;24578;48.264;11.436;2023-01-28T07:49:56;96732.63;;;-1.33;100.00
13604;BME280;24578;48.264;11.436;2023-01-28T07:52:57;96730.03;;;-1.30;100.00
13604;BME280;24578;48.264;11.436;2023-01-28T07:56:00;96738.50;;;-1.31;100.00
13604;BME280;24578;48.264;11.436;2023-01-28T07:59:01;96740.25;;;-1.33;100.00
13604;BME280;24578;48.264;11.436;2023-01-28T08:02:02;96739.19;;;-1.21;100.00
13604;BME280;24578;48.264;11.436;2023-01-28T08:05:03;96743.28;;;-1.13;100.00
13604;BME280;24578;48.264;11.436;2023-01-28T08:08:03;96739.75;;;-1.05;100.00
13604;BME280;24578;48.264;11.436;2023-01-28T08:11:08;96749.81;;;-1.01;100.00
13604;BME280;24578;48.264;11.436;2023-01-28T08:14:20;96749.88;;;-1.02;100.00
13604;BME280;24578;48.264;11.436;2023-01-28T08:17:21;96749.88;;;-1.02;100.00
13604;BME280;24578;48.264;11.436;2023-01-28T08:20:22;96752.31;;;-0.98;100.00
13604;BME280;24578;48.264;11.436;2023-01-28T08:23:23;96753.91;;;-0.92;100.00
13604;BME280;24578;48.264;11.436;2023-01-28T08:26:29;96756.41;;;-0.89;100.00
13604;BME280;24578;48.264;11.436;2023-01-28T08:29:41;96768.88;;;-0.75;100.00
13604;BME280;24578;48.264;11.436;2023-01-28T08:32:43;96767.88;;;-0.68;100.00
13604;BME280;24578;48.264;11.436;2023-01-28T08:35:45;96761.97;;;-0.70;100.00
13604;BME280;24578;48.264;11.436;2023-01-28T08:38:45;96772.09;;;-0.67;100.00
13604;BME280;24578;48.264;11.436;2023-01-28T08:41:46;96771.28;;;-0.67;100.00
13604;BME280;24578;48.264;11.436;2023-01-28T08:44:46;96764.47;;;-0.65;100.00
13604;BME280;24578;48.264;11.436;2023-01-28T08:47:55;96769.47;;;-0.62;100.00
13604;BME280;24578;48.264;11.436;2023-01-28T08:50:58;96767.88;;;-0.66;100.00
13604;BME280;24578;48.264;11.436;2023-01-28T08:53:59;96772.81;;;-0.58;100.00
13604;BME280;24578;48.264;11.436;2023-01-28T08:57:00;96776.88;;;-0.50;100.00
13604;BME280;24578;48.264;11.436;2023-01-28T09:00:00;96781.06;;;-0.47;100.00
13604;BME280;24578;48.264;11.436;2023-01-28T09:03:01;96782.69;;;-0.43;100.00
13604;BME280;24578;48.264;11.436;2023-01-28T09:06:03;96781.00;;;-0.44;100.00
13604;BME280;24578;48.264;11.436;2023-01-28T09:09:04;96791.03;;;-0.38;100.00
13604;BME280;24578;48.264;11.436;2023-01-28T09:12:04;96784.16;;;-0.33;100.00
13604;BME280;24578;48.264;11.436;2023-01-28T09:15:08;96790.94;;;-0.32;100.00
13604;BME280;24578;48.264;11.436;2023-01-28T09:18:09;96787.47;;;-0.27;100.00
13604;BME280;24578;48.264;11.436;2023-01-28T09:21:10;96783.09;;;-0.21;100.00
13604;BME280;24578;48.264;11.436;2023-01-28T09:24:10;96785.38;;;-0.08;100.00
13604;BME280;24578;48.264;11.436;2023-01-28T09:27:11;96791.91;;;0.04;100.00
13604;BME280;24578;48.264;11.436;2023-01-28T09:30:13;96790.94;;;0.09;100.00
13604;BME280;24578;48.264;11.436;2023-01-28T09:33:14;96793.22;;;0.22;100.00
13604;BME280;24578;48.264;11.436;2023-01-28T09:36:14;96786.16;;;0.33;100.00
13604;BME280;24578;48.264;11.436;2023-01-28T09:39:15;96797.03;;;0.41;100.00
13604;BME280;24578;48.264;11.436;2023-01-28T09:45:36;96796.19;;;0.77;100.00
13604;BME280;24578;48.264;11.436;2023-01-28T09:48:44;96795.19;;;0.84;100.00
13604;BME280;24578;48.264;11.436;2023-01-28T09:51:53;96798.94;;;1.04;100.00
13604;BME280;24578;48.264;11.436;2023-01-28T09:55:01;96796.16;;;1.13;100.00
13604;BME280;24578;48.264;11.436;2023-01-28T09:58:06;96794.25;;;1.21;100.00
13604;BME280;24578;48.264;11.436;2023-01-28T10:05:31;96792.53;;;1.55;100.00
13604;BME280;24578;48.264;11.436;2023-01-28T10:12:03;96777.88;;;1.92;100.00
13604;BME280;24578;48.264;11.436;2023-01-28T10:19:06;96783.00;;;1.92;100.00
13604;BME280;24578;48.264;11.436;2023-01-28T10:22:22;96783.69;;;1.97;100.00
13604;BME280;24578;48.264;11.436;2023-01-28T10:25:28;96778.31;;;1.76;100.00
13604;BME280;24578;48.264;11.436;2023-01-28T10:28:29;96768.19;;;1.73;100.00
13604;BME280;24578;48.264;11.436;2023-01-28T10:31:35;96766.53;;;1.72;100.00
13604;BME280;24578;48.264;11.436;2023-01-28T10:34:39;96767.00;;;1.85;100.00
13604;BME280;24578;48.264;11.436;2023-01-28T10:37:39;96760.75;;;1.95;100.00
13604;BME280;24578;48.264;11.436;2023-01-28T10:40:41;96764.03;;;1.99;100.00
13604;BME280;24578;48.264;11.436;2023-01-28T10:43:42;96760.88;;;2.19;100.00
13604;BME280;24578;48.264;11.436;2023-01-28T10:46:45;96757.97;;;2.32;100.00
13604;BME280;24578;48.264;11.436;2023-01-28T10:49:52;96760.09;;;2.46;100.00
13604;BME280;24578;48.264;11.436;2023-01-28T10:53:05;96760.97;;;2.44;100.00
13604;BME280;24578;48.264;11.436;2023-01-28T10:56:22;96771.50;;;2.35;100.00
13604;BME280;24578;48.264;11.436;2023-01-28T10:59:29;96770.75;;;2.03;100.00
13604;BME280;24578;48.264;11.436;2023-01-28T11:02:33;96767.00;;;1.85;100.00
13604;BME280;24578;48.264;11.436;2023-01-28T11:05:36;96772.41;;;1.74;100.00
13604;BME280;24578;48.264;11.436;2023-01-28T11:08:43;96771.50;;;1.77;100.00
13604;BME280;24578;48.264;11.436;2023-01-28T11:11:44;96770.31;;;1.57;100.00
13604;BME280;24578;48.264;11.436;2023-01-28T11:15:05;96776.34;;;1.55;100.00
13604;BME280;24578;48.264;11.436;2023-01-28T11:18:26;96781.03;;;1.70;100.00
13604;BME280;24578;48.264;11.436;2023-01-28T11:21:29;96786.81;;;1.77;100.00
13604;BME280;24578;48.264;11.436;2023-01-28T11:24:33;96776.22;;;1.91;100.00
13604;BME280;24578;48.264;11.436;2023-01-28T11:27:33;96780.50;;;2.19;100.00
13604;BME280;24578;48.264;11.436;2023-01-28T11:30:37;96772.38;;;2.34;100.00
13604;BME280;24578;48.264;11.436;2023-01-28T11:33:59;96771.66;;;2.57;100.00
13604;BME280;24578;48.264;11.436;2023-01-28T11:37:03;96778.88;;;2.98;100.00
13604;BME280;24578;48.264;11.436;2023-01-28T11:40:17;96768.94;;;3.40;100.00
13604;BME280;24578;48.264;11.436;2023-01-28T11:43:22;96773.84;;;3.70;100.00
13604;BME280;24578;48.264;11.436;2023-01-28T11:54:04;96763.06;;;4.31;99.57
13604;BME280;24578;48.264;11.436;2023-01-28T12:00:59;96749.00;;;5.05;94.30
13604;BME280;24578;48.264;11.436;2023-01-28T12:21:19;96755.03;;;4.61;91.29
13604;BME280;24578;48.264;11.436;2023-01-28T12:28:12;96751.16;;;4.06;94.95
13604;BME280;24578;48.264;11.436;2023-01-28T12:38:14;96759.13;;;3.02;96.93
13604;BME280;24578;48.264;11.436;2023-01-28T12:41:19;96762.16;;;2.88;100.00
13604;BME280;24578;48.264;11.436;2023-01-28T12:44:42;96760.78;;;2.78;100.00
13604;BME280;24578;48.264;11.436;2023-01-28T12:47:53;96757.13;;;2.58;100.00
13604;BME280;24578;48.264;11.436;2023-01-28T12:51:06;96763.66;;;2.40;100.00
13604;BME280;24578;48.264;11.436;2023-01-28T12:54:33;96768.53;;;2.21;100.00
13604;BME280;24578;48.264;11.436;2023-01-28T12:57:44;96767.34;;;2.31;100.00
13604;BME280;24578;48.264;11.436;2023-01-28T13:00:53;96770.69;;;2.05;100.00
13604;BME280;24578;48.264;11.436;2023-01-28T13:11:00;96759.50;;;2.09;100.00
13604;BME280;24578;48.264;11.436;2023-01-28T13:14:03;96759.59;;;2.06;100.00
13604;BME280;24578;48.264;11.436;2023-01-28T13:17:09;96767.38;;;2.01;100.00
13604;BME280;24578;48.264;11.436;2023-01-28T13:20:15;96768.28;;;2.00;100.00
13604;BME280;24578;48.264;11.436;2023-01-28T13:26:26;96774.63;;;1.87;100.00
13604;BME280;24578;48.264;11.436;2023-01-28T13:29:31;96774.09;;;1.75;100.00
13604;BME280;24578;48.264;11.436;2023-01-28T13:32:34;96779.22;;;1.74;100.00
13604;BME280;24578;48.264;11.436;2023-01-28T13:35:38;96786.28;;;1.65;100.00
13604;BME280;24578;48.264;11.436;2023-01-28T13:38:39;96786.28;;;1.65;100.00
13604;BME280;24578;48.264;11.436;2023-01-28T13:41:49;96784.34;;;1.74;100.00
13604;BME280;24578;48.264;11.436;2023-01-28T13:44:50;96789.41;;;1.75;100.00
13604;BME280;24578;48.264;11.436;2023-01-28T13:48:01;96795.19;;;1.80;100.00
13604;BME280;24578;48.264;11.436;2023-01-28T13:51:18;96793.44;;;1.82;100.00
13604;BME280;24578;48.264;11.436;2023-01-28T13:54:21;96798.09;;;1.68;100.00
13604;BME280;24578;48.264;11.436;2023-01-28T13:57:46;96794.81;;;1.64;100.00
13604;BME280;24578;48.264;11.436;2023-01-28T14:01:30;96796.66;;;1.59;100.00
13604;BME280;24578;48.264;11.436;2023-01-28T14:10:59;96801.06;;;1.52;100.00
13604;BME280;24578;48.264;11.436;2023-01-28T14:17:53;96801.50;;;1.69;100.00
13604;BME280;24578;48.264;11.436;2023-01-28T14:21:00;96810.13;;;1.64;100.00
13604;BME280;24578;48.264;11.436;2023-01-28T14:24:02;96802.72;;;1.55;100.00
13604;BME280;24578;48.264;11.436;2023-01-28T14:30:53;96809.88;;;1.42;100.00
13604;BME280;24578;48.264;11.436;2023-01-28T14:37:28;96808.50;;;1.62;100.00
13604;BME280;24578;48.264;11.436;2023-01-28T14:40:31;96827.34;;;1.56;100.00
13604;BME280;24578;48.264;11.436;2023-01-28T14:43:35;96828.47;;;1.46;100.00
13604;BME280;24578;48.264;11.436;2023-01-28T14:46:49;96829.47;;;1.40;100.00
13604;BME280;24578;48.264;11.436;2023-01-28T14:53:50;96833.00;;;1.01;100.00
13604;BME280;24578;48.264;11.436;2023-01-28T14:57:12;96836.69;;;0.89;100.00
13604;BME280;24578;48.264;11.436;2023-01-28T15:00:20;96832.56;;;0.85;100.00
13604;BME280;24578;48.264;11.436;2023-01-28T15:03:22;96832.63;;;0.82;100.00
13604;BME280;24578;48.264;11.436;2023-01-28T15:06:34;96838.53;;;0.83;100.00
13604;BME280;24578;48.264;11.436;2023-01-28T15:09:35;96856.59;;;0.73;100.00
13604;BME280;24578;48.264;11.436;2023-01-28T15:12:40;96853.25;;;0.71;100.00
13604;BME280;24578;48.264;11.436;2023-01-28T15:15:48;96857.72;;;0.62;100.00
13604;BME280;24578;48.264;11.436;2023-01-28T15:19:00;96852.84;;;0.52;100.00
13604;BME280;24578;48.264;11.436;2023-01-28T15:22:04;96857.25;;;0.44;100.00
13604;BME280;24578;48.264;11.436;2023-01-28T15:25:05;96854.91;;;0.35;100.00
13604;BME280;24578;48.264;11.436;2023-01-28T15:28:29;96869.44;;;0.29;100.00
13604;BME280;24578;48.264;11.436;2023-01-28T15:31:33;96861.75;;;0.33;100.00
13604;BME280;24578;48.264;11.436;2023-01-28T15:34:34;96869.59;;;0.22;100.00
13604;BME280;24578;48.264;11.436;2023-01-28T15:37:37;96868.84;;;0.18;100.00
13604;BME280;24578;48.264;11.436;2023-01-28T15:40:43;96879.13;;;0.12;100.00
13604;BME280;24578;48.264;11.436;2023-01-28T15:43:48;96887.63;;;0.11;100.00
13604;BME280;24578;48.264;11.436;2023-01-28T15:46:50;96886.88;;;0.07;100.00
13604;BME280;24578;48.264;11.436;2023-01-28T15:49:53;96882.84;;;-0.03;100.00
13604;BME280;24578;48.264;11.436;2023-01-28T15:52:54;96888.81;;;-0.04;100.00
13604;BME280;24578;48.264;11.436;2023-01-28T15:56:07;96883.88;;;-0.13;100.00
13604;BME280;24578;48.264;11.436;2023-01-28T15:59:26;96894.19;;;-0.21;100.00
13604;BME280;24578;48.264;11.436;2023-01-28T16:02:30;96886.69;;;-0.27;100.00
13604;BME280;24578;48.264;11.436;2023-01-28T16:05:39;96890.19;;;-0.35;100.00
13604;BME280;24578;48.264;11.436;2023-01-28T16:08:47;96879.31;;;-0.41;100.00
13604;BME280;24578;48.264;11.436;2023-01-28T16:11:50;96882.75;;;-0.46;100.00
13604;BME280;24578;48.264;11.436;2023-01-28T16:14:55;96890.34;;;-0.42;100.00
13604;BME280;24578;48.264;11.436;2023-01-28T16:17:57;96886.09;;;-0.42;100.00
13604;BME280;24578;48.264;11.436;2023-01-28T16:20:58;96902.19;;;-0.41;100.00
13604;BME280;24578;48.264;11.436;2023-01-28T16:24:04;96905.69;;;-0.47;100.00
13604;BME280;24578;48.264;11.436;2023-01-28T16:30:19;96911.59;;;-0.45;100.00
13604;BME280;24578;48.264;11.436;2023-01-28T16:33:20;96916.69;;;-0.45;100.00
13604;BME280;24578;48.264;11.436;2023-01-28T16:36:21;96911.56;;;-0.43;100.00
13604;BME280;24578;48.264;11.436;2023-01-28T16:39:23;96924.28;;;-0.42;100.00
13604;BME280;24578;48.264;11.436;2023-01-28T16:42:24;96923.41;;;-0.42;100.00
13604;BME280;24578;48.264;11.436;2023-01-28T16:45:25;96928.44;;;-0.39;100.00
13604;BME280;24578;48.264;11.436;2023-01-28T16:48:25;96925.81;;;-0.35;100.00
13604;BME280;24578;48.264;11.436;2023-01-28T16:51:26;96937.78;;;-0.38;100.00
13604;BME280;24578;48.264;11.436;2023-01-28T16:54:27;96942.00;;;-0.39;100.00
13604;BME280;24578;48.264;11.436;2023-01-28T16:57:34;96934.44;;;-0.43;100.00
13604;BME280;24578;48.264;11.436;2023-01-28T17:00:35;96935.31;;;-0.44;100.00
13604;BME280;24578;48.264;11.436;2023-01-28T17:03:36;96929.31;;;-0.40;100.00
13604;BME280;24578;48.264;11.436;2023-01-28T17:06:37;96930.13;;;-0.38;100.00
13604;BME280;24578;48.264;11.436;2023-01-28T17:09:38;96942.91;;;-0.41;100.00
13604;BME280;24578;48.264;11.436;2023-01-28T17:12:39;96944.66;;;-0.45;100.00
13604;BME280;24578;48.264;11.436;2023-01-28T17:15:40;96939.53;;;-0.43;100.00
13604;BME280;24578;48.264;11.436;2023-01-28T17:19:01;96940.41;;;-0.43;100.00
13604;BME280;24578;48.264;11.436;2023-01-28T17:22:01;96937.84;;;-0.44;100.00
13604;BME280;24578;48.264;11.436;2023-01-28T17:25:02;96942.94;;;-0.43;100.00
13604;BME280;24578;48.264;11.436;2023-01-28T17:28:03;96948.00;;;-0.41;100.00
13604;BME280;24578;48.264;11.436;2023-01-28T17:31:09;96951.41;;;-0.42;100.00
13604;BME280;24578;48.264;11.436;2023-01-28T17:34:11;96949.72;;;-0.42;100.00
13604;BME280;24578;48.264;11.436;2023-01-28T17:37:12;96959.28;;;-0.58;100.00
13604;BME280;24578;48.264;11.436;2023-01-28T17:40:12;96955.00;;;-0.56;100.00
13604;BME280;24578;48.264;11.436;2023-01-28T17:43:13;96951.56;;;-0.53;100.00
13604;BME280;24578;48.264;11.436;2023-01-28T17:46:15;96947.34;;;-0.54;100.00
13604;BME280;24578;48.264;11.436;2023-01-28T17:49:16;96952.38;;;-0.50;100.00